sensor_id;sensor_type;location;lat;lon;timestamp;pressure;altitude;pressure_sealevel;temperature;humidity
55460;BME280;41326;45.302;-122.946;2023-02-17T00:00:58;101665.53;;;16.70;51.06
55460;BME280;41326;45.302;-122.946;2023-02-17T00:03:28;101665.81;;;16.70;50.86
55460;BME280;41326;45.302;-122.946;2023-02-17T00:05:58;101668.83;;;16.85;50.68
55460;BME280;41326;45.302;-122.946;2023-02-17T00:08:28;101663.99;;;17.10;50.48
55460;BME280;41326;45.302;-122.946;2023-02-17T00:11:03;101662.96;;;17.39;49.65
55460;BME280;41326;45.302;-122.946;2023-02-17T00:13:29;101658.21;;;17.72;49.15
55460;BME280;41326;45.302;-122.946;2023-02-17T00:15:59;101661.35;;;17.97;48.57
55460;BME280;41326;45.302;-122.946;2023-02-17T00:18:29;101664.07;;;18.17;48.09
55460;BME280;41326;45.302;-122.946;2023-02-17T00:21:00;101663.26;;;18.11;48.34
55460;BME280;41326;45.302;-122.946;2023-02-17T00:23:30;101660.89;;;17.98;49.04
55460;BME280;41326;45.302;-122.946;2023-02-17T00:26:03;101656.88;;;17.96;49.11
55460;BME280;41326;45.302;-122.946;2023-02-17T00:28:30;101655.89;;;18.24;48.62
55460;BME280;41326;45.302;-122.946;2023-02-17T00:31:05;101657.48;;;18.38;48.55
55460;BME280;41326;45.302;-122.946;2023-02-17T00:33:31;101655.98;;;18.60;48.12
55460;BME280;41326;45.302;-122.946;2023-02-17T00:36:03;101653.03;;;18.67;47.84
55460;BME280;41326;45.302;-122.946;2023-02-17T00:38:33;101652.94;;;18.51;48.36
55460;BME280;41326;45.302;-122.946;2023-02-17T00:41:02;101652.53;;;18.40;49.03
55460;BME280;41326;45.302;-122.946;2023-02-17T00:43:32;101654.74;;;18.43;49.26
55460;BME280;41326;45.302;-122.946;2023-02-17T00:46:03;101660.41;;;18.47;49.51
55460;BME280;41326;45.302;-122.946;2023-02-17T00:48:33;101658.94;;;18.56;49.41
55460;BME280;41326;45.302;-122.946;2023-02-17T00:51:04;101659.48;;;18.60;49.38
55460;BME280;41326;45.302;-122.946;2023-02-17T00:53:34;101661.62;;;18.45;50.08
55460;BME280;41326;45.302;-122.946;2023-02-17T00:56:05;101660.95;;;18.38;50.43
55460;BME280;41326;45.302;-122.946;2023-02-17T00:58:35;101656.47;;;18.28;50.72
55460;BME280;41326;45.302;-122.946;2023-02-17T01:01:06;101655.89;;;18.24;50.59
55460;BME280;41326;45.302;-122.946;2023-02-17T01:03:36;101655.60;;;18.30;50.28
55460;BME280;41326;45.302;-122.946;2023-02-17T01:06:21;101656.97;;;18.40;49.97
55460;BME280;41326;45.302;-122.946;2023-02-17T01:08:37;101658.32;;;18.49;49.60
55460;BME280;41326;45.302;-122.946;2023-02-17T01:11:07;101657.44;;;18.45;49.77
55460;BME280;41326;45.302;-122.946;2023-02-17T01:13:37;101653.46;;;18.37;50.00
55460;BME280;41326;45.302;-122.946;2023-02-17T01:18:38;101649.27;;;18.22;50.22
55460;BME280;41326;45.302;-122.946;2023-02-17T01:23:39;101655.97;;;18.17;50.83
55460;BME280;41326;45.302;-122.946;2023-02-17T01:26:12;101654.49;;;18.30;50.77
55460;BME280;41326;45.302;-122.946;2023-02-17T01:28:40;101654.53;;;18.34;50.87
55460;BME280;41326;45.302;-122.946;2023-02-17T01:31:11;101656.50;;;18.29;51.05
55460;BME280;41326;45.302;-122.946;2023-02-17T01:33:40;101656.96;;;18.22;51.28
55460;BME280;41326;45.302;-122.946;2023-02-17T01:36:14;101662.50;;;18.17;51.49
55460;BME280;41326;45.302;-122.946;2023-02-17T01:38:42;101659.59;;;18.19;51.14
55460;BME280;41326;45.302;-122.946;2023-02-17T01:41:13;101653.39;;;18.29;50.71
55460;BME280;41326;45.302;-122.946;2023-02-17T01:43:42;101648.55;;;18.41;50.10
55460;BME280;41326;45.302;-122.946;2023-02-17T01:46:13;101643.82;;;18.39;50.50
55460;BME280;41326;45.302;-122.946;2023-02-17T01:48:47;101645.30;;;18.36;50.82
55460;BME280;41326;45.302;-122.946;2023-02-17T01:51:15;101648.87;;;18.27;51.59
55460;BME280;41326;45.302;-122.946;2023-02-17T01:53:47;101647.89;;;18.23;51.85
55460;BME280;41326;45.302;-122.946;2023-02-17T01:56:15;101653.61;;;18.19;51.93
55460;BME280;41326;45.302;-122.946;2023-02-17T01:58:46;101657.68;;;18.14;51.91
55460;BME280;41326;45.302;-122.946;2023-02-17T02:01:14;101662.15;;;18.12;51.80
55460;BME280;41326;45.302;-122.946;2023-02-17T02:03:45;101666.25;;;18.09;51.87
55460;BME280;41326;45.302;-122.946;2023-02-17T02:06:17;101668.14;;;18.03;52.00
55460;BME280;41326;45.302;-122.946;2023-02-17T02:08:51;101671.58;;;18.02;52.22
55460;BME280;41326;45.302;-122.946;2023-02-17T02:11:15;101679.79;;;17.95;52.74
55460;BME280;41326;45.302;-122.946;2023-02-17T02:13:46;101678.91;;;17.93;52.79
55460;BME280;41326;45.302;-122.946;2023-02-17T02:16:20;101686.22;;;17.93;52.81
55460;BME280;41326;45.302;-122.946;2023-02-17T02:18:52;101692.94;;;17.87;53.03
55460;BME280;41326;45.302;-122.946;2023-02-17T02:23:57;101689.06;;;17.99;53.26
55460;BME280;41326;45.302;-122.946;2023-02-17T02:26:29;101696.75;;;18.11;53.47
55460;BME280;41326;45.302;-122.946;2023-02-17T02:29:01;101696.26;;;18.23;53.17
55460;BME280;41326;45.302;-122.946;2023-02-17T02:31:32;101689.44;;;18.29;53.12
55460;BME280;41326;45.302;-122.946;2023-02-17T02:33:53;101692.02;;;18.27;53.44
55460;BME280;41326;45.302;-122.946;2023-02-17T02:36:24;101699.38;;;18.22;53.98
55460;BME280;41326;45.302;-122.946;2023-02-17T02:38:53;101702.22;;;18.15;53.94
55460;BME280;41326;45.302;-122.946;2023-02-17T02:41:23;101704.99;;;18.15;53.69
55460;BME280;41326;45.302;-122.946;2023-02-17T02:43:50;101710.64;;;18.10;53.37
55460;BME280;41326;45.302;-122.946;2023-02-17T02:46:21;101715.82;;;18.07;53.63
55460;BME280;41326;45.302;-122.946;2023-02-17T02:48:51;101717.33;;;18.00;53.73
55460;BME280;41326;45.302;-122.946;2023-02-17T02:51:30;101724.13;;;18.00;53.89
55460;BME280;41326;45.302;-122.946;2023-02-17T02:54:05;101726.90;;;17.95;53.84
55460;BME280;41326;45.302;-122.946;2023-02-17T02:56:34;101726.80;;;17.90;53.79
55460;BME280;41326;45.302;-122.946;2023-02-17T02:58:57;101732.70;;;17.93;53.38
55460;BME280;41326;45.302;-122.946;2023-02-17T03:01:30;101733.58;;;17.86;53.34
55460;BME280;41326;45.302;-122.946;2023-02-17T03:04:00;101736.47;;;17.86;53.30
55460;BME280;41326;45.302;-122.946;2023-02-17T03:06:28;101744.10;;;18.02;52.45
55460;BME280;41326;45.302;-122.946;2023-02-17T03:08:56;101746.03;;;18.11;52.07
55460;BME280;41326;45.302;-122.946;2023-02-17T03:11:28;101746.38;;;18.16;51.66
55460;BME280;41326;45.302;-122.946;2023-02-17T03:13:55;101744.92;;;18.20;51.68
55460;BME280;41326;45.302;-122.946;2023-02-17T03:16:25;101738.80;;;18.11;52.00
55460;BME280;41326;45.302;-122.946;2023-02-17T03:18:55;101738.88;;;18.09;51.81
55460;BME280;41326;45.302;-122.946;2023-02-17T03:21:26;101734.61;;;18.06;51.86
55460;BME280;41326;45.302;-122.946;2023-02-17T03:23:55;101735.32;;;17.99;52.20
55460;BME280;41326;45.302;-122.946;2023-02-17T03:26:25;101734.51;;;17.95;52.21
55460;BME280;41326;45.302;-122.946;2023-02-17T03:28:56;101729.38;;;17.96;51.93
55460;BME280;41326;45.302;-122.946;2023-02-17T03:31:26;101724.03;;;17.92;52.07
55460;BME280;41326;45.302;-122.946;2023-02-17T03:33:58;101727.67;;;17.86;52.31
55460;BME280;41326;45.302;-122.946;2023-02-17T03:36:27;101728.08;;;17.85;52.03
55460;BME280;41326;45.302;-122.946;2023-02-17T03:38:57;101730.30;;;17.76;52.37
55460;BME280;41326;45.302;-122.946;2023-02-17T03:42:36;101733.91;;;17.89;51.75
55460;BME280;41326;45.302;-122.946;2023-02-17T03:45:06;101741.49;;;18.06;51.00
55460;BME280;41326;45.302;-122.946;2023-02-17T03:47:37;101743.15;;;18.17;50.76
55460;BME280;41326;45.302;-122.946;2023-02-17T03:50:07;101739.53;;;18.19;50.76
55460;BME280;41326;45.302;-122.946;2023-02-17T03:52:37;101741.38;;;18.15;50.88
55460;BME280;41326;45.302;-122.946;2023-02-17T03:55:07;101740.97;;;18.10;51.13
55460;BME280;41326;45.302;-122.946;2023-02-17T03:57:38;101740.36;;;18.03;51.24
55460;BME280;41326;45.302;-122.946;2023-02-17T04:00:09;101736.81;;;17.96;51.38
55460;BME280;41326;45.302;-122.946;2023-02-17T04:02:39;101742.48;;;17.93;51.33
55460;BME280;41326;45.302;-122.946;2023-02-17T04:05:09;101742.54;;;18.06;50.83
55460;BME280;41326;45.302;-122.946;2023-02-17T04:07:39;101741.05;;;18.18;50.47
55460;BME280;41326;45.302;-122.946;2023-02-17T04:10:10;101741.20;;;18.28;50.15
55460;BME280;41326;45.302;-122.946;2023-02-17T04:12:40;101748.98;;;18.34;50.05
55460;BME280;41326;45.302;-122.946;2023-02-17T04:15:11;101748.14;;;18.29;50.09
55460;BME280;41326;45.302;-122.946;2023-02-17T04:17:41;101748.84;;;18.22;50.44
55460;BME280;41326;45.302;-122.946;2023-02-17T04:20:12;101750.30;;;18.11;50.56
55460;BME280;41326;45.302;-122.946;2023-02-17T04:22:41;101745.20;;;18.10;50.61
55460;BME280;41326;45.302;-122.946;2023-02-17T04:25:12;101741.62;;;18.02;50.82
55460;BME280;41326;45.302;-122.946;2023-02-17T04:27:43;101734.39;;;17.99;50.83
55460;BME280;41326;45.302;-122.946;2023-02-17T04:30:14;101735.42;;;17.96;51.01
55460;BME280;41326;45.302;-122.946;2023-02-17T04:32:46;101739.03;;;17.87;51.28
55460;BME280;41326;45.302;-122.946;2023-02-17T04:35:16;101744.74;;;17.97;50.86
55460;BME280;41326;45.302;-122.946;2023-02-17T04:37:46;101747.73;;;18.02;50.82
55460;BME280;41326;45.302;-122.946;2023-02-17T04:40:18;101758.29;;;18.21;50.14
55460;BME280;41326;45.302;-122.946;2023-02-17T04:42:47;101768.60;;;18.19;50.09
55460;BME280;41326;45.302;-122.946;2023-02-17T04:45:18;101779.04;;;18.18;50.26
55460;BME280;41326;45.302;-122.946;2023-02-17T04:47:48;101778.11;;;18.12;50.34
55460;BME280;41326;45.302;-122.946;2023-02-17T04:50:18;101781.88;;;18.10;50.43
55460;BME280;41326;45.302;-122.946;2023-02-17T04:52:48;101781.70;;;17.97;50.84
55460;BME280;41326;45.302;-122.946;2023-02-17T04:55:22;101781.00;;;17.94;50.91
55460;BME280;41326;45.302;-122.946;2023-02-17T04:57:51;101781.27;;;18.00;50.70
55460;BME280;41326;45.302;-122.946;2023-02-17T05:00:21;101780.68;;;18.12;50.36
55460;BME280;41326;45.302;-122.946;2023-02-17T05:03:08;101784.58;;;18.14;50.39
55460;BME280;41326;45.302;-122.946;2023-02-17T05:05:43;101789.33;;;18.15;50.45
55460;BME280;41326;45.302;-122.946;2023-02-17T05:08:05;101789.89;;;18.14;50.35
55460;BME280;41326;45.302;-122.946;2023-02-17T05:10:35;101793.69;;;18.08;50.65
55460;BME280;41326;45.302;-122.946;2023-02-17T05:13:06;101791.68;;;18.00;50.84
55460;BME280;41326;45.302;-122.946;2023-02-17T05:15:37;101794.83;;;17.98;50.92
55460;BME280;41326;45.302;-122.946;2023-02-17T05:18:07;101792.61;;;17.87;51.03
55460;BME280;41326;45.302;-122.946;2023-02-17T05:20:37;101792.61;;;17.88;50.86
55460;BME280;41326;45.302;-122.946;2023-02-17T05:23:07;101793.01;;;17.82;51.11
55460;BME280;41326;45.302;-122.946;2023-02-17T05:25:38;101794.65;;;17.81;51.04
55460;BME280;41326;45.302;-122.946;2023-02-17T05:28:08;101791.36;;;17.74;51.27
55460;BME280;41326;45.302;-122.946;2023-02-17T05:30:38;101785.50;;;17.73;51.21
55460;BME280;41326;45.302;-122.946;2023-02-17T05:33:08;101785.23;;;17.67;51.34
55460;BME280;41326;45.302;-122.946;2023-02-17T05:35:40;101785.67;;;17.67;51.35
55460;BME280;41326;45.302;-122.946;2023-02-17T05:38:09;101783.02;;;17.62;51.50
55460;BME280;41326;45.302;-122.946;2023-02-17T05:40:39;101779.79;;;17.62;51.27
55460;BME280;41326;45.302;-122.946;2023-02-17T05:43:10;101777.73;;;17.59;51.32
55460;BME280;41326;45.302;-122.946;2023-02-17T05:45:42;101774.45;;;17.55;51.47
55460;BME280;41326;45.302;-122.946;2023-02-17T05:48:11;101776.64;;;17.49;51.75
55460;BME280;41326;45.302;-122.946;2023-02-17T05:50:41;101774.33;;;17.44;51.92
55460;BME280;41326;45.302;-122.946;2023-02-17T05:53:12;101773.22;;;17.49;51.65
55460;BME280;41326;45.302;-122.946;2023-02-17T05:55:42;101776.71;;;17.44;51.82
55460;BME280;41326;45.302;-122.946;2023-02-17T05:58:13;101776.11;;;17.41;51.82
55460;BME280;41326;45.302;-122.946;2023-02-17T06:00:44;101783.11;;;17.40;51.68
55460;BME280;41326;45.302;-122.946;2023-02-17T06:03:14;101790.71;;;17.36;51.74
55460;BME280;41326;45.302;-122.946;2023-02-17T06:05:44;101797.01;;;17.33;51.88
55460;BME280;41326;45.302;-122.946;2023-02-17T06:08:14;101798.87;;;17.33;51.80
55460;BME280;41326;45.302;-122.946;2023-02-17T06:10:47;101799.45;;;17.29;51.98
55460;BME280;41326;45.302;-122.946;2023-02-17T06:13:15;101801.94;;;17.27;52.00
55460;BME280;41326;45.302;-122.946;2023-02-17T06:15:45;101799.38;;;17.23;52.12
55460;BME280;41326;45.302;-122.946;2023-02-17T06:18:15;101791.35;;;17.22;51.96
55460;BME280;41326;45.302;-122.946;2023-02-17T06:20:46;101787.70;;;17.20;51.78
55460;BME280;41326;45.302;-122.946;2023-02-17T06:23:16;101785.31;;;17.19;51.90
55460;BME280;41326;45.302;-122.946;2023-02-17T06:25:46;101786.02;;;17.14;52.09
55460;BME280;41326;45.302;-122.946;2023-02-17T06:28:16;101787.09;;;17.13;52.05
55460;BME280;41326;45.302;-122.946;2023-02-17T06:30:47;101789.68;;;17.12;52.12
55460;BME280;41326;45.302;-122.946;2023-02-17T06:33:18;101791.85;;;17.12;52.12
55460;BME280;41326;45.302;-122.946;2023-02-17T06:35:52;101792.93;;;17.08;52.30
55460;BME280;41326;45.302;-122.946;2023-02-17T06:38:18;101790.39;;;17.05;52.29
55460;BME280;41326;45.302;-122.946;2023-02-17T06:40:48;101791.84;;;17.00;52.33
55460;BME280;41326;45.302;-122.946;2023-02-17T06:43:19;101794.74;;;17.04;52.11
55460;BME280;41326;45.302;-122.946;2023-02-17T06:45:49;101786.02;;;16.96;52.35
55460;BME280;41326;45.302;-122.946;2023-02-17T06:48:19;101787.63;;;16.98;52.28
55460;BME280;41326;45.302;-122.946;2023-02-17T06:50:49;101794.19;;;16.98;52.24
55460;BME280;41326;45.302;-122.946;2023-02-17T06:53:20;101798.33;;;16.92;52.37
55460;BME280;41326;45.302;-122.946;2023-02-17T06:55:51;101797.84;;;16.93;52.34
55460;BME280;41326;45.302;-122.946;2023-02-17T06:58:21;101801.25;;;16.88;52.36
55460;BME280;41326;45.302;-122.946;2023-02-17T07:00:51;101805.40;;;16.89;52.14
55460;BME280;41326;45.302;-122.946;2023-02-17T07:03:22;101809.00;;;16.86;52.30
55460;BME280;41326;45.302;-122.946;2023-02-17T07:05:56;101810.25;;;16.82;52.46
55460;BME280;41326;45.302;-122.946;2023-02-17T07:08:22;101820.49;;;16.85;52.29
55460;BME280;41326;45.302;-122.946;2023-02-17T07:10:53;101825.90;;;16.81;52.45
55460;BME280;41326;45.302;-122.946;2023-02-17T07:13:23;101829.03;;;16.79;52.44
55460;BME280;41326;45.302;-122.946;2023-02-17T07:15:53;101829.71;;;16.75;52.58
55460;BME280;41326;45.302;-122.946;2023-02-17T07:18:24;101824.02;;;16.75;52.43
55460;BME280;41326;45.302;-122.946;2023-02-17T07:20:54;101820.80;;;16.74;52.42
55460;BME280;41326;45.302;-122.946;2023-02-17T07:23:24;101822.29;;;16.69;52.55
55460;BME280;41326;45.302;-122.946;2023-02-17T07:25:54;101826.57;;;16.75;52.43
55460;BME280;41326;45.302;-122.946;2023-02-17T07:28:24;101826.59;;;16.72;52.44
55460;BME280;41326;45.302;-122.946;2023-02-17T07:30:55;101827.29;;;16.68;52.52
55460;BME280;41326;45.302;-122.946;2023-02-17T07:33:25;101828.21;;;16.67;52.50
55460;BME280;41326;45.302;-122.946;2023-02-17T07:35:56;101828.81;;;16.63;52.52
55460;BME280;41326;45.302;-122.946;2023-02-17T07:38:26;101830.97;;;16.56;52.69
55460;BME280;41326;45.302;-122.946;2023-02-17T07:40:59;101828.46;;;16.58;52.54
55460;BME280;41326;45.302;-122.946;2023-02-17T07:43:27;101832.84;;;16.52;52.78
55460;BME280;41326;45.302;-122.946;2023-02-17T07:45:59;101835.73;;;16.55;52.73
55460;BME280;41326;45.302;-122.946;2023-02-17T07:48:28;101838.99;;;16.54;52.77
55460;BME280;41326;45.302;-122.946;2023-02-17T07:51:03;101840.90;;;16.51;52.79
55460;BME280;41326;45.302;-122.946;2023-02-17T07:53:29;101836.81;;;16.48;52.92
55460;BME280;41326;45.302;-122.946;2023-02-17T07:56:01;101835.66;;;16.46;53.17
55460;BME280;41326;45.302;-122.946;2023-02-17T07:58:30;101840.32;;;16.51;52.99
55460;BME280;41326;45.302;-122.946;2023-02-17T08:01:04;101839.94;;;16.45;53.25
55460;BME280;41326;45.302;-122.946;2023-02-17T08:03:30;101840.29;;;16.45;53.31
55460;BME280;41326;45.302;-122.946;2023-02-17T08:06:01;101839.20;;;16.47;53.37
55460;BME280;41326;45.302;-122.946;2023-02-17T08:08:31;101839.89;;;16.46;53.33
55460;BME280;41326;45.302;-122.946;2023-02-17T08:11:08;101841.19;;;16.44;53.29
55460;BME280;41326;45.302;-122.946;2023-02-17T08:13:33;101845.35;;;16.41;53.39
55460;BME280;41326;45.302;-122.946;2023-02-17T08:16:02;101846.59;;;16.42;53.30
55460;BME280;41326;45.302;-122.946;2023-02-17T08:18:32;101846.63;;;16.39;53.40
55460;BME280;41326;45.302;-122.946;2023-02-17T08:21:03;101848.76;;;16.42;53.35
55460;BME280;41326;45.302;-122.946;2023-02-17T08:23:33;101845.67;;;16.36;53.68
55460;BME280;41326;45.302;-122.946;2023-02-17T08:26:04;101844.92;;;16.34;53.89
55460;BME280;41326;45.302;-122.946;2023-02-17T08:28:34;101851.38;;;16.36;53.82
55460;BME280;41326;45.302;-122.946;2023-02-17T08:31:05;101855.22;;;16.34;53.96
55460;BME280;41326;45.302;-122.946;2023-02-17T08:33:35;101856.59;;;16.29;54.26
55460;BME280;41326;45.302;-122.946;2023-02-17T08:36:11;101857.33;;;16.28;54.28
55460;BME280;41326;45.302;-122.946;2023-02-17T08:38:36;101857.23;;;16.23;54.60
55460;BME280;41326;45.302;-122.946;2023-02-17T08:43:37;101863.88;;;16.25;54.73
55460;BME280;41326;45.302;-122.946;2023-02-17T08:46:11;101861.29;;;16.16;55.13
55460;BME280;41326;45.302;-122.946;2023-02-17T08:48:38;101859.18;;;16.18;54.93
55460;BME280;41326;45.302;-122.946;2023-02-17T08:51:11;101859.79;;;16.13;55.13
55460;BME280;41326;45.302;-122.946;2023-02-17T08:53:39;101859.06;;;16.12;55.04
55460;BME280;41326;45.302;-122.946;2023-02-17T08:56:09;101854.85;;;16.12;55.16
55460;BME280;41326;45.302;-122.946;2023-02-17T08:58:39;101855.90;;;16.08;54.97
55460;BME280;41326;45.302;-122.946;2023-02-17T09:01:09;101853.82;;;16.05;55.21
55460;BME280;41326;45.302;-122.946;2023-02-17T09:03:41;101853.22;;;16.02;55.57
55460;BME280;41326;45.302;-122.946;2023-02-17T09:06:11;101851.00;;;16.02;55.66
55460;BME280;41326;45.302;-122.946;2023-02-17T09:08:41;101851.12;;;16.01;55.66
55460;BME280;41326;45.302;-122.946;2023-02-17T09:11:11;101849.37;;;16.04;55.44
55460;BME280;41326;45.302;-122.946;2023-02-17T09:13:41;101852.33;;;15.96;55.83
55460;BME280;41326;45.302;-122.946;2023-02-17T09:16:11;101849.09;;;16.00;55.65
55460;BME280;41326;45.302;-122.946;2023-02-17T09:18:42;101849.69;;;16.00;55.59
55460;BME280;41326;45.302;-122.946;2023-02-17T09:21:13;101850.89;;;15.99;55.57
55460;BME280;41326;45.302;-122.946;2023-02-17T09:23:42;101855.12;;;15.97;55.52
55460;BME280;41326;45.302;-122.946;2023-02-17T09:26:15;101857.21;;;16.02;55.44
55460;BME280;41326;45.302;-122.946;2023-02-17T09:28:43;101860.72;;;15.97;55.56
55460;BME280;41326;45.302;-122.946;2023-02-17T09:31:15;101868.35;;;16.01;55.32
55460;BME280;41326;45.302;-122.946;2023-02-17T09:33:44;101868.32;;;15.98;55.52
55460;BME280;41326;45.302;-122.946;2023-02-17T09:36:16;101868.97;;;15.96;55.69
55460;BME280;41326;45.302;-122.946;2023-02-17T09:38:45;101866.26;;;15.98;55.49
55460;BME280;41326;45.302;-122.946;2023-02-17T09:41:22;101863.85;;;15.93;55.74
55460;BME280;41326;45.302;-122.946;2023-02-17T09:43:46;101862.23;;;15.87;55.81
55460;BME280;41326;45.302;-122.946;2023-02-17T09:46:20;101864.89;;;15.90;55.59
55460;BME280;41326;45.302;-122.946;2023-02-17T09:48:47;101873.61;;;15.87;55.56
55460;BME280;41326;45.302;-122.946;2023-02-17T09:51:24;101871.71;;;15.89;55.56
55460;BME280;41326;45.302;-122.946;2023-02-17T09:53:51;101872.31;;;15.86;55.70
55460;BME280;41326;45.302;-122.946;2023-02-17T09:56:22;101871.03;;;15.86;55.80
55460;BME280;41326;45.302;-122.946;2023-02-17T09:58:51;101869.49;;;15.83;55.85
55460;BME280;41326;45.302;-122.946;2023-02-17T10:01:23;101869.66;;;15.78;55.96
55460;BME280;41326;45.302;-122.946;2023-02-17T10:03:52;101875.02;;;15.78;55.85
55460;BME280;41326;45.302;-122.946;2023-02-17T10:06:21;101881.46;;;15.79;55.87
55460;BME280;41326;45.302;-122.946;2023-02-17T10:08:54;101885.57;;;15.75;56.03
55460;BME280;41326;45.302;-122.946;2023-02-17T10:11:25;101887.88;;;15.74;55.93
55460;BME280;41326;45.302;-122.946;2023-02-17T10:13:51;101888.05;;;15.71;56.27
55460;BME280;41326;45.302;-122.946;2023-02-17T10:16:27;101889.46;;;15.73;56.13
55460;BME280;41326;45.302;-122.946;2023-02-17T10:18:56;101891.98;;;15.70;56.15
55460;BME280;41326;45.302;-122.946;2023-02-17T10:21:25;101894.18;;;15.68;56.10
55460;BME280;41326;45.302;-122.946;2023-02-17T10:23:51;101896.12;;;15.68;55.96
55460;BME280;41326;45.302;-122.946;2023-02-17T10:26:30;101894.45;;;15.67;56.03
55460;BME280;41326;45.302;-122.946;2023-02-17T10:28:56;101893.58;;;15.68;55.88
55460;BME280;41326;45.302;-122.946;2023-02-17T10:31:27;101893.54;;;15.66;56.03
55460;BME280;41326;45.302;-122.946;2023-02-17T10:33:59;101893.20;;;15.61;56.16
55460;BME280;41326;45.302;-122.946;2023-02-17T10:36:31;101892.91;;;15.62;56.13
55460;BME280;41326;45.302;-122.946;2023-02-17T10:38:57;101893.48;;;15.56;56.12
55460;BME280;41326;45.302;-122.946;2023-02-17T10:41:29;101892.83;;;15.59;55.99
55460;BME280;41326;45.302;-122.946;2023-02-17T10:43:55;101899.76;;;15.54;56.20
55460;BME280;41326;45.302;-122.946;2023-02-17T10:46:29;101905.33;;;15.56;56.17
55460;BME280;41326;45.302;-122.946;2023-02-17T10:48:56;101906.01;;;15.53;56.27
55460;BME280;41326;45.302;-122.946;2023-02-17T10:51:28;101906.82;;;15.57;56.11
55460;BME280;41326;45.302;-122.946;2023-02-17T10:53:59;101910.43;;;15.51;56.21
55460;BME280;41326;45.302;-122.946;2023-02-17T10:56:31;101917.05;;;15.50;56.28
55460;BME280;41326;45.302;-122.946;2023-02-17T10:58:58;101925.15;;;15.47;56.55
55460;BME280;41326;45.302;-122.946;2023-02-17T11:01:27;101927.81;;;15.48;56.36
55460;BME280;41326;45.302;-122.946;2023-02-17T11:04:02;101929.62;;;15.47;56.29
55460;BME280;41326;45.302;-122.946;2023-02-17T11:06:27;101927.00;;;15.45;56.45
55460;BME280;41326;45.302;-122.946;2023-02-17T11:09:01;101918.00;;;15.42;56.53
55460;BME280;41326;45.302;-122.946;2023-02-17T11:11:29;101902.01;;;15.46;56.34
55460;BME280;41326;45.302;-122.946;2023-02-17T11:14:18;101898.18;;;15.44;56.30
55460;BME280;41326;45.302;-122.946;2023-02-17T11:16:33;101905.53;;;15.42;56.37
55460;BME280;41326;45.302;-122.946;2023-02-17T11:18:59;101904.46;;;15.38;56.49
55460;BME280;41326;45.302;-122.946;2023-02-17T11:22:39;101906.70;;;15.38;56.26
55460;BME280;41326;45.302;-122.946;2023-02-17T11:27:37;101907.16;;;15.37;56.47
55460;BME280;41326;45.302;-122.946;2023-02-17T11:30:14;101907.70;;;15.37;56.38
55460;BME280;41326;45.302;-122.946;2023-02-17T11:32:37;101901.31;;;15.29;56.56
55460;BME280;41326;45.302;-122.946;2023-02-17T11:37:42;101898.77;;;15.29;56.68
55460;BME280;41326;45.302;-122.946;2023-02-17T11:40:21;101896.17;;;15.27;56.45
55460;BME280;41326;45.302;-122.946;2023-02-17T11:42:40;101894.32;;;15.28;56.37
55460;BME280;41326;45.302;-122.946;2023-02-17T11:45:17;101892.25;;;15.25;56.51
55460;BME280;41326;45.302;-122.946;2023-02-17T11:47:41;101894.49;;;15.26;56.59
55460;BME280;41326;45.302;-122.946;2023-02-17T11:50:19;101896.53;;;15.21;56.77
55460;BME280;41326;45.302;-122.946;2023-02-17T11:52:52;101896.26;;;15.24;56.67
55460;BME280;41326;45.302;-122.946;2023-02-17T11:55:20;101892.13;;;15.24;56.65
55460;BME280;41326;45.302;-122.946;2023-02-17T11:57:49;101892.23;;;15.21;56.74
55460;BME280;41326;45.302;-122.946;2023-02-17T12:00:20;101889.64;;;15.20;56.59
55460;BME280;41326;45.302;-122.946;2023-02-17T12:02:55;101885.56;;;15.21;56.48
55460;BME280;41326;45.302;-122.946;2023-02-17T12:05:21;101885.17;;;15.17;56.66
55460;BME280;41326;45.302;-122.946;2023-02-17T12:07:57;101885.44;;;15.14;56.75
55460;BME280;41326;45.302;-122.946;2023-02-17T12:10:21;101880.82;;;15.20;56.49
55460;BME280;41326;45.302;-122.946;2023-02-17T12:12:56;101880.76;;;15.15;56.63
55460;BME280;41326;45.302;-122.946;2023-02-17T12:15:23;101879.08;;;15.13;56.67
55460;BME280;41326;45.302;-122.946;2023-02-17T12:17:50;101879.64;;;15.10;56.73
55460;BME280;41326;45.302;-122.946;2023-02-17T12:20:30;101880.67;;;15.07;56.87
55460;BME280;41326;45.302;-122.946;2023-02-17T12:22:53;101877.05;;;15.11;56.51
55460;BME280;41326;45.302;-122.946;2023-02-17T12:25:23;101875.88;;;15.06;56.77
55460;BME280;41326;45.302;-122.946;2023-02-17T12:27:58;101878.44;;;15.06;56.86
55460;BME280;41326;45.302;-122.946;2023-02-17T12:30:24;101882.35;;;15.02;56.93
55460;BME280;41326;45.302;-122.946;2023-02-17T12:32:58;101883.85;;;15.01;56.94
55460;BME280;41326;45.302;-122.946;2023-02-17T12:35:21;101879.82;;;15.01;56.96
55460;BME280;41326;45.302;-122.946;2023-02-17T12:37:51;101879.71;;;14.99;57.01
55460;BME280;41326;45.302;-122.946;2023-02-17T12:40:30;101883.11;;;15.00;56.74
55460;BME280;41326;45.302;-122.946;2023-02-17T12:42:52;101885.05;;;14.99;56.69
55460;BME280;41326;45.302;-122.946;2023-02-17T12:45:23;101890.45;;;14.94;56.92
55460;BME280;41326;45.302;-122.946;2023-02-17T12:47:54;101895.22;;;14.95;56.96
55460;BME280;41326;45.302;-122.946;2023-02-17T12:50:21;101897.75;;;14.92;57.08
55460;BME280;41326;45.302;-122.946;2023-02-17T12:52:51;101899.49;;;14.97;56.82